sensor_id;sensor_type;location;lat;lon;timestamp;pressure;altitude;pressure_sealevel;temperature;humidity
69153;BME280;56261;51.580;4.578;2022-12-07T00:03:31;102067.31;;;4.83;100.00
69153;BME280;56261;51.580;4.578;2022-12-07T00:05:58;102060.75;;;4.76;100.00
69153;BME280;56261;51.580;4.578;2022-12-07T00:08:24;102058.50;;;4.70;100.00
69153;BME280;56261;51.580;4.578;2022-12-07T00:10:49;102055.56;;;4.74;100.00
69153;BME280;56261;51.580;4.578;2022-12-07T00:13:14;102051.81;;;4.64;100.00
69153;BME280;56261;51.580;4.578;2022-12-07T00:15:40;102055.94;;;4.55;100.00
69153;BME280;56261;51.580;4.578;2022-12-07T00:18:05;102056.19;;;4.38;100.00
69153;BME280;56261;51.580;4.578;2022-12-07T00:20:30;102057.47;;;4.45;100.00
69153;BME280;56261;51.580;4.578;2022-12-07T00:22:56;102058.66;;;4.54;100.00
69153;BME280;56261;51.580;4.578;2022-12-07T00:25:21;102052.41;;;4.55;100.00
69153;BME280;56261;51.580;4.578;2022-12-07T00:27:47;102062.66;;;4.47;100.00
69153;BME280;56261;51.580;4.578;2022-12-07T00:30:12;102054.53;;;4.50;100.00
69153;BME280;56261;51.580;4.578;2022-12-07T00:32:37;102047.84;;;4.44;100.00
69153;BME280;56261;51.580;4.578;2022-12-07T00:35:03;102040.88;;;4.43;100.00
69153;BME280;56261;51.580;4.578;2022-12-07T00:37:29;102040.56;;;4.48;100.00
69153;BME280;56261;51.580;4.578;2022-12-07T00:39:54;102046.91;;;4.45;100.00
69153;BME280;56261;51.580;4.578;2022-12-07T00:42:19;102048.94;;;4.54;100.00
69153;BME280;56261;51.580;4.578;2022-12-07T00:44:45;102056.97;;;4.53;100.00
69153;BME280;56261;51.580;4.578;2022-12-07T00:47:10;102042.41;;;4.60;100.00
69153;BME280;56261;51.580;4.578;2022-12-07T00:49:35;102043.88;;;4.51;100.00
69153;BME280;56261;51.580;4.578;2022-12-07T00:52:01;102041.25;;;4.37;100.00
69153;BME280;56261;51.580;4.578;2022-12-07T00:54:26;102041.88;;;4.28;100.00
69153;BME280;56261;51.580;4.578;2022-12-07T00:56:51;102042.09;;;4.10;100.00
69153;BME280;56261;51.580;4.578;2022-12-07T00:59:17;102030.69;;;4.10;100.00
69153;BME280;56261;51.580;4.578;2022-12-07T01:01:42;102037.56;;;4.12;100.00
69153;BME280;56261;51.580;4.578;2022-12-07T01:04:08;102028.06;;;4.10;100.00
69153;BME280;56261;51.580;4.578;2022-12-07T01:06:34;102042.97;;;3.97;100.00
69153;BME280;56261;51.580;4.578;2022-12-07T01:09:00;102036.41;;;3.89;100.00
69153;BME280;56261;51.580;4.578;2022-12-07T01:11:27;102046.50;;;3.83;100.00
69153;BME280;56261;51.580;4.578;2022-12-07T01:13:55;102039.91;;;3.76;100.00
69153;BME280;56261;51.580;4.578;2022-12-07T01:16:25;102041.41;;;3.80;100.00
69153;BME280;56261;51.580;4.578;2022-12-07T01:18:52;102028.69;;;3.72;100.00
69153;BME280;56261;51.580;4.578;2022-12-07T01:21:21;102034.31;;;3.66;100.00
69153;BME280;56261;51.580;4.578;2022-12-07T01:23:47;102032.75;;;3.63;100.00
69153;BME280;56261;51.580;4.578;2022-12-07T01:26:16;102027.00;;;3.71;100.00
69153;BME280;56261;51.580;4.578;2022-12-07T01:28:42;102031.69;;;3.66;100.00
69153;BME280;56261;51.580;4.578;2022-12-07T01:31:10;102043.13;;;3.66;100.00
69153;BME280;56261;51.580;4.578;2022-12-07T01:33:44;102030.94;;;3.64;100.00
69153;BME280;56261;51.580;4.578;2022-12-07T01:36:14;102042.81;;;3.57;100.00
69153;BME280;56261;51.580;4.578;2022-12-07T01:38:41;102025.69;;;3.49;100.00
69153;BME280;56261;51.580;4.578;2022-12-07T01:41:06;102033.88;;;3.45;100.00
69153;BME280;56261;51.580;4.578;2022-12-07T01:43:33;102032.56;;;3.52;100.00
69153;BME280;56261;51.580;4.578;2022-12-07T01:46:01;102039.53;;;3.53;100.00
69153;BME280;56261;51.580;4.578;2022-12-07T01:50:56;102033.97;;;3.43;100.00
69153;BME280;56261;51.580;4.578;2022-12-07T01:53:26;102038.31;;;3.44;100.00
69153;BME280;56261;51.580;4.578;2022-12-07T01:55:54;102039.44;;;3.40;100.00
69153;BME280;56261;51.580;4.578;2022-12-07T01:58:21;102036.44;;;3.46;100.00
69153;BME280;56261;51.580;4.578;2022-12-07T02:00:46;102034.06;;;3.42;100.00
69153;BME280;56261;51.580;4.578;2022-12-07T02:05:46;102031.97;;;3.32;100.00
69153;BME280;56261;51.580;4.578;2022-12-07T02:08:13;102032.09;;;3.31;100.00
69153;BME280;56261;51.580;4.578;2022-12-07T02:10:39;102026.34;;;3.39;100.00
69153;BME280;56261;51.580;4.578;2022-12-07T02:13:12;102029.81;;;3.39;100.00
69153;BME280;56261;51.580;4.578;2022-12-07T02:15:48;102035.28;;;3.36;100.00
69153;BME280;56261;51.580;4.578;2022-12-07T02:26:36;102026.63;;;3.20;100.00
69153;BME280;56261;51.580;4.578;2022-12-07T02:29:24;102028.84;;;3.11;100.00
69153;BME280;56261;51.580;4.578;2022-12-07T02:31:56;102020.81;;;2.99;100.00
69153;BME280;56261;51.580;4.578;2022-12-07T02:34:37;102015.47;;;3.00;100.00
69153;BME280;56261;51.580;4.578;2022-12-07T02:37:11;102019.69;;;2.88;100.00
69153;BME280;56261;51.580;4.578;2022-12-07T02:39:46;102024.09;;;2.88;100.00
69153;BME280;56261;51.580;4.578;2022-12-07T02:42:22;102015.53;;;2.84;100.00
69153;BME280;56261;51.580;4.578;2022-12-07T02:44:49;102016.03;;;2.91;100.00
69153;BME280;56261;51.580;4.578;2022-12-07T02:47:16;102011.19;;;2.83;100.00
69153;BME280;56261;51.580;4.578;2022-12-07T02:49:43;102011.56;;;2.77;100.00
69153;BME280;56261;51.580;4.578;2022-12-07T02:52:08;102016.72;;;2.79;100.00
69153;BME280;56261;51.580;4.578;2022-12-07T02:54:34;102013.94;;;2.82;100.00
69153;BME280;56261;51.580;4.578;2022-12-07T02:57:19;102013.31;;;2.93;100.00
69153;BME280;56261;51.580;4.578;2022-12-07T03:00:07;102022.63;;;3.12;100.00
69153;BME280;56261;51.580;4.578;2022-12-07T03:10:54;102025.25;;;2.98;100.00
69153;BME280;56261;51.580;4.578;2022-12-07T03:16:04;102021.22;;;3.07;100.00
69153;BME280;56261;51.580;4.578;2022-12-07T03:18:37;102025.53;;;3.08;100.00
69153;BME280;56261;51.580;4.578;2022-12-07T03:21:09;102021.41;;;3.04;100.00
69153;BME280;56261;51.580;4.578;2022-12-07T03:23:38;102014.50;;;3.01;100.00
69153;BME280;56261;51.580;4.578;2022-12-07T03:26:09;102017.06;;;2.88;100.00
69153;BME280;56261;51.580;4.578;2022-12-07T03:28:41;102022.47;;;2.85;100.00
69153;BME280;56261;51.580;4.578;2022-12-07T03:33:49;101998.97;;;2.82;100.00
69153;BME280;56261;51.580;4.578;2022-12-07T03:36:31;102007.69;;;2.68;100.00
69153;BME280;56261;51.580;4.578;2022-12-07T03:39:03;102013.88;;;2.67;100.00
69153;BME280;56261;51.580;4.578;2022-12-07T03:41:35;102018.84;;;2.58;100.00
69153;BME280;56261;51.580;4.578;2022-12-07T03:44:02;102010.47;;;2.65;100.00
69153;BME280;56261;51.580;4.578;2022-12-07T03:49:29;102017.63;;;2.63;100.00
69153;BME280;56261;51.580;4.578;2022-12-07T03:57:49;102004.03;;;2.71;100.00
69153;BME280;56261;51.580;4.578;2022-12-07T04:00:16;102005.66;;;2.88;100.00
69153;BME280;56261;51.580;4.578;2022-12-07T04:02:42;102008.13;;;3.05;100.00
69153;BME280;56261;51.580;4.578;2022-12-07T04:05:08;102004.94;;;3.15;100.00
69153;BME280;56261;51.580;4.578;2022-12-07T04:07:34;102013.50;;;3.04;100.00
69153;BME280;56261;51.580;4.578;2022-12-07T04:09:59;102012.38;;;3.08;100.00
69153;BME280;56261;51.580;4.578;2022-12-07T04:12:24;102013.03;;;3.11;100.00
69153;BME280;56261;51.580;4.578;2022-12-07T04:14:50;102013.03;;;3.11;100.00
69153;BME280;56261;51.580;4.578;2022-12-07T04:17:15;102011.88;;;3.01;100.00
69153;BME280;56261;51.580;4.578;2022-12-07T04:19:41;102012.84;;;3.15;100.00
69153;BME280;56261;51.580;4.578;2022-12-07T04:22:06;102009.72;;;3.08;100.00
69153;BME280;56261;51.580;4.578;2022-12-07T04:24:33;102003.50;;;2.95;100.00
69153;BME280;56261;51.580;4.578;2022-12-07T04:26:58;102005.84;;;2.85;100.00
69153;BME280;56261;51.580;4.578;2022-12-07T04:29:24;102014.22;;;2.77;100.00
69153;BME280;56261;51.580;4.578;2022-12-07T04:31:50;102008.19;;;2.75;100.00
69153;BME280;56261;51.580;4.578;2022-12-07T04:34:17;102008.38;;;2.86;100.00
69153;BME280;56261;51.580;4.578;2022-12-07T04:36:43;101998.78;;;2.85;100.00
69153;BME280;56261;51.580;4.578;2022-12-07T04:39:18;101992.19;;;2.78;100.00
69153;BME280;56261;51.580;4.578;2022-12-07T04:41:44;101993.28;;;2.74;100.00
69153;BME280;56261;51.580;4.578;2022-12-07T04:44:09;101998.13;;;2.82;100.00
69153;BME280;56261;51.580;4.578;2022-12-07T04:46:35;101998.00;;;2.83;100.00
69153;BME280;56261;51.580;4.578;2022-12-07T04:49:00;102002.84;;;2.91;100.00
69153;BME280;56261;51.580;4.578;2022-12-07T04:51:28;102002.22;;;3.02;100.00
69153;BME280;56261;51.580;4.578;2022-12-07T04:53:54;101993.84;;;3.09;100.00
69153;BME280;56261;51.580;4.578;2022-12-07T04:56:20;101987.69;;;2.95;100.00
69153;BME280;56261;51.580;4.578;2022-12-07T04:58:47;101986.28;;;2.89;100.00
69153;BME280;56261;51.580;4.578;2022-12-07T05:01:13;101989.09;;;2.86;100.00
69153;BME280;56261;51.580;4.578;2022-12-07T05:03:39;101976.72;;;2.72;100.00
69153;BME280;56261;51.580;4.578;2022-12-07T05:06:05;101972.75;;;2.65;100.00
69153;BME280;56261;51.580;4.578;2022-12-07T05:08:32;101974.59;;;2.48;100.00
69153;BME280;56261;51.580;4.578;2022-12-07T05:10:57;101978.34;;;2.44;100.00
69153;BME280;56261;51.580;4.578;2022-12-07T05:13:23;101972.59;;;2.38;100.00
69153;BME280;56261;51.580;4.578;2022-12-07T05:15:48;101975.31;;;2.36;100.00
69153;BME280;56261;51.580;4.578;2022-12-07T05:18:14;101977.44;;;2.29;100.00
69153;BME280;56261;51.580;4.578;2022-12-07T05:20:41;101980.75;;;2.33;100.00
69153;BME280;56261;51.580;4.578;2022-12-07T05:23:06;101980.75;;;2.33;100.00
69153;BME280;56261;51.580;4.578;2022-12-07T05:25:32;101975.00;;;2.26;100.00
69153;BME280;56261;51.580;4.578;2022-12-07T05:27:57;101983.72;;;2.27;100.00
69153;BME280;56261;51.580;4.578;2022-12-07T05:30:24;101985.88;;;2.20;100.00
69153;BME280;56261;51.580;4.578;2022-12-07T05:32:50;101974.94;;;2.12;100.00
69153;BME280;56261;51.580;4.578;2022-12-07T05:35:16;101982.72;;;2.14;100.00
69153;BME280;56261;51.580;4.578;2022-12-07T05:37:41;101977.91;;;2.06;100.00
69153;BME280;56261;51.580;4.578;2022-12-07T05:40:07;101978.19;;;2.01;100.00
69153;BME280;56261;51.580;4.578;2022-12-07T05:42:33;101985.56;;;1.95;100.00
69153;BME280;56261;51.580;4.578;2022-12-07T05:44:58;101984.28;;;1.86;100.00
69153;BME280;56261;51.580;4.578;2022-12-07T05:47:24;101977.75;;;1.77;100.00
69153;BME280;56261;51.580;4.578;2022-12-07T05:49:49;101979.63;;;1.75;100.00
69153;BME280;56261;51.580;4.578;2022-12-07T05:52:15;101981.47;;;1.73;100.00
69153;BME280;56261;51.580;4.578;2022-12-07T05:54:40;101973.84;;;1.69;100.00
69153;BME280;56261;51.580;4.578;2022-12-07T05:57:06;101980.38;;;1.61;100.00
69153;BME280;56261;51.580;4.578;2022-12-07T05:59:31;101983.78;;;1.63;100.00
69153;BME280;56261;51.580;4.578;2022-12-07T06:02:02;101978.84;;;1.57;100.00
69153;BME280;56261;51.580;4.578;2022-12-07T06:04:30;101977.13;;;1.56;100.00
69153;BME280;56261;51.580;4.578;2022-12-07T06:06:56;101982.63;;;1.52;100.00
69153;BME280;56261;51.580;4.578;2022-12-07T06:09:23;101979.25;;;1.50;100.00
69153;BME280;56261;51.580;4.578;2022-12-07T06:11:49;101984.28;;;1.54;100.00
69153;BME280;56261;51.580;4.578;2022-12-07T06:14:33;101984.34;;;1.69;100.00
69153;BME280;56261;51.580;4.578;2022-12-07T06:16:59;101967.81;;;1.66;100.00
69153;BME280;56261;51.580;4.578;2022-12-07T06:19:24;101984.19;;;1.72;100.00
69153;BME280;56261;51.580;4.578;2022-12-07T06:21:50;101989.78;;;1.65;100.00
69153;BME280;56261;51.580;4.578;2022-12-07T06:24:17;101989.03;;;1.63;100.00
69153;BME280;56261;51.580;4.578;2022-12-07T06:26:43;101988.25;;;1.61;100.00
69153;BME280;56261;51.580;4.578;2022-12-07T06:29:09;101986.03;;;1.70;100.00
69153;BME280;56261;51.580;4.578;2022-12-07T06:31:35;101988.00;;;1.98;100.00
69153;BME280;56261;51.580;4.578;2022-12-07T06:34:06;101987.31;;;2.26;100.00
69153;BME280;56261;51.580;4.578;2022-12-07T06:36:33;101993.53;;;2.55;100.00
69153;BME280;56261;51.580;4.578;2022-12-07T06:38:58;101984.63;;;2.72;100.00
69153;BME280;56261;51.580;4.578;2022-12-07T06:41:24;101971.59;;;2.85;100.00
69153;BME280;56261;51.580;4.578;2022-12-07T06:43:50;101976.19;;;2.81;100.00
69153;BME280;56261;51.580;4.578;2022-12-07T06:46:16;101991.34;;;2.92;100.00
69153;BME280;56261;51.580;4.578;2022-12-07T06:48:42;101979.22;;;2.89;100.00
69153;BME280;56261;51.580;4.578;2022-12-07T06:51:08;101975.06;;;2.85;100.00
69153;BME280;56261;51.580;4.578;2022-12-07T06:53:34;101977.63;;;2.87;100.00
69153;BME280;56261;51.580;4.578;2022-12-07T06:56:00;101976.09;;;2.83;100.00
69153;BME280;56261;51.580;4.578;2022-12-07T06:58:25;101976.28;;;2.80;100.00
69153;BME280;56261;51.580;4.578;2022-12-07T07:00:50;101970.81;;;2.83;100.00
69153;BME280;56261;51.580;4.578;2022-12-07T07:03:16;101968.00;;;2.72;100.00
69153;BME280;56261;51.580;4.578;2022-12-07T07:05:42;101963.47;;;2.59;100.00
69153;BME280;56261;51.580;4.578;2022-12-07T07:08:08;101978.22;;;2.62;100.00
69153;BME280;56261;51.580;4.578;2022-12-07T07:10:34;101966.94;;;2.60;100.00
69153;BME280;56261;51.580;4.578;2022-12-07T07:13:00;101971.34;;;2.59;100.00
69153;BME280;56261;51.580;4.578;2022-12-07T07:15:29;101980.25;;;2.57;100.00
69153;BME280;56261;51.580;4.578;2022-12-07T07:17:54;101984.41;;;2.61;100.00
69153;BME280;56261;51.580;4.578;2022-12-07T07:20:20;101962.78;;;2.56;100.00
69153;BME280;56261;51.580;4.578;2022-12-07T07:22:45;101982.94;;;2.71;100.00
69153;BME280;56261;51.580;4.578;2022-12-07T07:25:11;101982.00;;;2.72;100.00
69153;BME280;56261;51.580;4.578;2022-12-07T07:27:36;101975.66;;;2.60;100.00
69153;BME280;56261;51.580;4.578;2022-12-07T07:30:03;101978.88;;;2.65;100.00
69153;BME280;56261;51.580;4.578;2022-12-07T07:32:29;101974.22;;;2.70;100.00
69153;BME280;56261;51.580;4.578;2022-12-07T07:34:54;101969.59;;;2.74;100.00
69153;BME280;56261;51.580;4.578;2022-12-07T07:37:19;101978.59;;;2.70;100.00
69153;BME280;56261;51.580;4.578;2022-12-07T07:39:45;101974.97;;;2.73;100.00
69153;BME280;56261;51.580;4.578;2022-12-07T07:42:10;101975.25;;;2.68;100.00
69153;BME280;56261;51.580;4.578;2022-12-07T07:44:36;101980.03;;;2.76;100.00
69153;BME280;56261;51.580;4.578;2022-12-07T07:47:02;101971.09;;;2.78;100.00
69153;BME280;56261;51.580;4.578;2022-12-07T07:49:27;101986.06;;;2.78;100.00
69153;BME280;56261;51.580;4.578;2022-12-07T07:51:52;101974.00;;;2.74;100.00
69153;BME280;56261;51.580;4.578;2022-12-07T07:54:18;101977.69;;;2.71;100.00
69153;BME280;56261;51.580;4.578;2022-12-07T07:56:43;101963.25;;;2.62;100.00
69153;BME280;56261;51.580;4.578;2022-12-07T07:59:08;101978.88;;;2.65;100.00
69153;BME280;56261;51.580;4.578;2022-12-07T08:01:34;101982.28;;;2.67;100.00
69153;BME280;56261;51.580;4.578;2022-12-07T08:04:00;101983.63;;;2.75;100.00
69153;BME280;56261;51.580;4.578;2022-12-07T08:06:25;101986.06;;;2.78;100.00
69153;BME280;56261;51.580;4.578;2022-12-07T08:08:51;101984.53;;;2.74;100.00
69153;BME280;56261;51.580;4.578;2022-12-07T08:11:17;101985.22;;;2.77;100.00
69153;BME280;56261;51.580;4.578;2022-12-07T08:13:45;101990.22;;;2.82;100.00
69153;BME280;56261;51.580;4.578;2022-12-07T08:16:11;101982.53;;;2.93;100.00
69153;BME280;56261;51.580;4.578;2022-12-07T08:18:38;101986.75;;;2.96;100.00
69153;BME280;56261;51.580;4.578;2022-12-07T08:21:06;101991.28;;;3.08;100.00
69153;BME280;56261;51.580;4.578;2022-12-07T08:23:32;101991.22;;;3.24;100.00
69153;BME280;56261;51.580;4.578;2022-12-07T08:26:01;101983.88;;;3.29;100.00
69153;BME280;56261;51.580;4.578;2022-12-07T08:28:28;101991.56;;;3.32;100.00
69153;BME280;56261;51.580;4.578;2022-12-07T08:31:02;101993.75;;;3.40;100.00
69153;BME280;56261;51.580;4.578;2022-12-07T08:33:28;101995.66;;;3.38;100.00
69153;BME280;56261;51.580;4.578;2022-12-07T08:35:53;101994.06;;;3.35;100.00
69153;BME280;56261;51.580;4.578;2022-12-07T08:38:19;102017.97;;;3.46;100.00
69153;BME280;56261;51.580;4.578;2022-12-07T08:40:44;101998.28;;;3.66;100.00
69153;BME280;56261;51.580;4.578;2022-12-07T08:43:10;102003.06;;;3.45;100.00
69153;BME280;56261;51.580;4.578;2022-12-07T08:45:35;101998.16;;;3.39;100.00
69153;BME280;56261;51.580;4.578;2022-12-07T08:48:06;101998.09;;;3.41;100.00
69153;BME280;56261;51.580;4.578;2022-12-07T08:50:34;101986.31;;;3.46;100.00
69153;BME280;56261;51.580;4.578;2022-12-07T08:53:02;102005.34;;;3.51;100.00
69153;BME280;56261;51.580;4.578;2022-12-07T08:55:30;102004.72;;;3.75;100.00
69153;BME280;56261;51.580;4.578;2022-12-07T08:57:58;101998.84;;;3.99;100.00
69153;BME280;56261;51.580;4.578;2022-12-07T09:00:24;102005.09;;;4.25;100.00
69153;BME280;56261;51.580;4.578;2022-12-07T09:02:50;102008.81;;;4.35;100.00
69153;BME280;56261;51.580;4.578;2022-12-07T09:05:15;102005.09;;;4.25;100.00
69153;BME280;56261;51.580;4.578;2022-12-07T09:07:43;102008.44;;;4.41;100.00
69153;BME280;56261;51.580;4.578;2022-12-07T09:10:09;102004.84;;;4.42;100.00
69153;BME280;56261;51.580;4.578;2022-12-07T09:12:35;101997.66;;;4.44;100.00
69153;BME280;56261;51.580;4.578;2022-12-07T09:15:00;101989.28;;;4.37;100.00
69153;BME280;56261;51.580;4.578;2022-12-07T09:17:26;101987.81;;;4.33;100.00
69153;BME280;56261;51.580;4.578;2022-12-07T09:19:51;101991.00;;;4.39;100.00
69153;BME280;56261;51.580;4.578;2022-12-07T09:22:17;101995.66;;;4.48;100.00
69153;BME280;56261;51.580;4.578;2022-12-07T09:24:43;101999.13;;;4.35;100.00
69153;BME280;56261;51.580;4.578;2022-12-07T09:27:10;101985.16;;;4.33;100.00
69153;BME280;56261;51.580;4.578;2022-12-07T09:29:36;101989.09;;;4.41;100.00
69153;BME280;56261;51.580;4.578;2022-12-07T09:32:02;101994.69;;;4.36;100.00
69153;BME280;56261;51.580;4.578;2022-12-07T09:34:30;101989.25;;;4.25;100.00
69153;BME280;56261;51.580;4.578;2022-12-07T09:36:55;102001.66;;;4.10;100.00
69153;BME280;56261;51.580;4.578;2022-12-07T09:39:21;101988.59;;;3.94;100.00
69153;BME280;56261;51.580;4.578;2022-12-07T09:41:46;101991.47;;;4.04;100.00
69153;BME280;56261;51.580;4.578;2022-12-07T09:44:20;101992.34;;;4.04;100.00
69153;BME280;56261;51.580;4.578;2022-12-07T09:46:46;102004.00;;;4.14;100.00
69153;BME280;56261;51.580;4.578;2022-12-07T09:49:17;102000.88;;;4.22;100.00
69153;BME280;56261;51.580;4.578;2022-12-07T09:51:44;101994.31;;;4.28;100.00
69153;BME280;56261;51.580;4.578;2022-12-07T09:54:13;101994.56;;;4.37;100.00
69153;BME280;56261;51.580;4.578;2022-12-07T09:56:39;101994.13;;;4.58;100.00
69153;BME280;56261;51.580;4.578;2022-12-07T09:59:04;101995.91;;;4.70;100.00
69153;BME280;56261;51.580;4.578;2022-12-07T10:01:32;101988.53;;;4.88;100.00
69153;BME280;56261;51.580;4.578;2022-12-07T10:04:09;101985.69;;;5.04;100.00
69153;BME280;56261;51.580;4.578;2022-12-07T10:06:36;101983.16;;;5.15;100.00
69153;BME280;56261;51.580;4.578;2022-12-07T10:09:02;101984.78;;;5.18;100.00
69153;BME280;56261;51.580;4.578;2022-12-07T10:11:27;101972.47;;;5.43;100.00
69153;BME280;56261;51.580;4.578;2022-12-07T10:13:53;101973.00;;;5.48;100.00
69153;BME280;56261;51.580;4.578;2022-12-07T10:18:51;101982.00;;;5.45;100.00
69153;BME280;56261;51.580;4.578;2022-12-07T10:21:26;101980.75;;;5.25;100.00
69153;BME280;56261;51.580;4.578;2022-12-07T10:24:04;101982.31;;;5.15;100.00
69153;BME280;56261;51.580;4.578;2022-12-07T10:26:38;101978.94;;;5.13;100.00
69153;BME280;56261;51.580;4.578;2022-12-07T10:29:21;101985.50;;;5.07;100.00
69153;BME280;56261;51.580;4.578;2022-12-07T10:31:53;101988.91;;;5.09;100.00
69153;BME280;56261;51.580;4.578;2022-12-07T10:36:49;101969.84;;;5.04;100.00
69153;BME280;56261;51.580;4.578;2022-12-07T10:39:21;101967.09;;;5.06;100.00
69153;BME280;56261;51.580;4.578;2022-12-07T10:41:56;101964.03;;;5.12;100.00
69153;BME280;56261;51.580;4.578;2022-12-07T10:44:28;101955.69;;;5.05;100.00
69153;BME280;56261;51.580;4.578;2022-12-07T10:47:18;101954.72;;;5.06;100.00
69153;BME280;56261;51.580;4.578;2022-12-07T10:55:40;101956.63;;;5.17;100.00
69153;BME280;56261;51.580;4.578;2022-12-07T11:06:35;101942.34;;;5.07;100.00
69153;BME280;56261;51.580;4.578;2022-12-07T11:15:04;101920.66;;;5.02;100.00
69153;BME280;56261;51.580;4.578;2022-12-07T11:25:52;101895.06;;;5.15;100.00
69153;BME280;56261;51.580;4.578;2022-12-07T11:28:41;101898.75;;;5.12;100.00
69153;BME280;56261;51.580;4.578;2022-12-07T11:36:37;101891.16;;;5.20;100.00
69153;BME280;56261;51.580;4.578;2022-12-07T11:41:47;101890.34;;;5.31;100.00
69153;BME280;56261;51.580;4.578;2022-12-07T11:44:49;101903.78;;;5.41;100.00
69153;BME280;56261;51.580;4.578;2022-12-07T11:50:05;101894.63;;;5.58;100.00
69153;BME280;56261;51.580;4.578;2022-12-07T12:06:37;101884.72;;;6.10;100.00
69153;BME280;56261;51.580;4.578;2022-12-07T12:16:57;101869.16;;;6.05;100.00
69153;BME280;56261;51.580;4.578;2022-12-07T12:22:17;101848.44;;;5.99;100.00
69153;BME280;56261;51.580;4.578;2022-12-07T12:24:46;101851.06;;;5.99;100.00
69153;BME280;56261;51.580;4.578;2022-12-07T12:27:31;101853.97;;;6.07;100.00
69153;BME280;56261;51.580;4.578;2022-12-07T12:30:02;101852.34;;;6.17;100.00
69153;BME280;56261;51.580;4.578;2022-12-07T12:32:42;101844.53;;;6.27;100.00
69153;BME280;56261;51.580;4.578;2022-12-07T12:35:30;101847.69;;;6.32;100.00
69153;BME280;56261;51.580;4.578;2022-12-07T12:40:51;101842.50;;;6.42;100.00
69153;BME280;56261;51.580;4.578;2022-12-07T12:43:51;101840.19;;;6.26;100.00
69153;BME280;56261;51.580;4.578;2022-12-07T12:49:40;101817.28;;;6.14;100.00
69153;BME280;56261;51.580;4.578;2022-12-07T12:57:30;101827.59;;;5.94;100.00
69153;BME280;56261;51.580;4.578;2022-12-07T13:00:00;101830.72;;;5.99;100.00
69153;BME280;56261;51.580;4.578;2022-12-07T13:02:35;101827.84;;;6.02;100.00
69153;BME280;56261;51.580;4.578;2022-12-07T13:13:01;101827.56;;;6.30;100.00
69153;BME280;56261;51.580;4.578;2022-12-07T13:15:42;101820.69;;;6.27;100.00
69153;BME280;56261;51.580;4.578;2022-12-07T13:18:24;101817.78;;;6.19;100.00
69153;BME280;56261;51.580;4.578;2022-12-07T13:20:57;101812.22;;;6.11;100.00
69153;BME280;56261;51.580;4.578;2022-12-07T13:23:29;101811.75;;;6.06;100.00
69153;BME280;56261;51.580;4.578;2022-12-07T13:28:39;101806.94;;;5.87;100.00
69153;BME280;56261;51.580;4.578;2022-12-07T13:31:18;101798.66;;;5.91;100.00
69153;BME280;56261;51.580;4.578;2022-12-07T13:33:45;101796.97;;;5.90;100.00
69153;BME280;56261;51.580;4.578;2022-12-07T13:36:37;101789.44;;;5.73;100.00
69153;BME280;56261;51.580;4.578;2022-12-07T13:39:21;101798.16;;;5.86;100.00
69153;BME280;56261;51.580;4.578;2022-12-07T13:41:54;101789.34;;;5.74;100.00
69153;BME280;56261;51.580;4.578;2022-12-07T13:44:22;101792.59;;;5.78;100.00
69153;BME280;56261;51.580;4.578;2022-12-07T13:46:57;101794.25;;;5.68;100.00
69153;BME280;56261;51.580;4.578;2022-12-07T13:49:29;101791.22;;;5.61;100.00
69153;BME280;56261;51.580;4.578;2022-12-07T13:52:17;101782.19;;;5.64;100.00
69153;BME280;56261;51.580;4.578;2022-12-07T13:57:30;101780.09;;;5.56;100.00
69153;BME280;56261;51.580;4.578;2022-12-07T13:59:57;101782.88;;;5.54;100.00
69153;BME280;56261;51.580;4.578;2022-12-07T14:02:34;101776.06;;;5.39;100.00
69153;BME280;56261;51.580;4.578;2022-12-07T14:08:04;101768.38;;;5.36;100.00
69153;BME280;56261;51.580;4.578;2022-12-07T14:10:32;101763.72;;;5.27;100.00
69153;BME280;56261;51.580;4.578;2022-12-07T14:12:59;101765.88;;;5.22;100.00
69153;BME280;56261;51.580;4.578;2022-12-07T14:15:32;101761.38;;;5.35;100.00
69153;BME280;56261;51.580;4.578;2022-12-07T14:17:58;101762.13;;;5.37;100.00
69153;BME280;56261;51.580;4.578;2022-12-07T14:20:47;101761.03;;;5.39;100.00
69153;BME280;56261;51.580;4.578;2022-12-07T14:23:24;101765.50;;;5.39;100.00
69153;BME280;56261;51.580;4.578;2022-12-07T14:25:52;101745.34;;;5.49;100.00
69153;BME280;56261;51.580;4.578;2022-12-07T14:30:51;101745.66;;;5.45;100.00
69153;BME280;56261;51.580;4.578;2022-12-07T14:33:17;101750.50;;;5.51;100.00
69153;BME280;56261;51.580;4.578;2022-12-07T14:35:43;101754.13;;;5.50;100.00
69153;BME280;56261;51.580;4.578;2022-12-07T14:38:08;101745.81;;;5.43;100.00
69153;BME280;56261;51.580;4.578;2022-12-07T14:40:34;101754.50;;;5.56;100.00
69153;BME280;56261;51.580;4.578;2022-12-07T14:43:05;101744.03;;;5.55;100.00
69153;BME280;56261;51.580;4.578;2022-12-07T14:45:33;101738.69;;;5.44;100.00
69153;BME280;56261;51.580;4.578;2022-12-07T14:47:59;101736.28;;;5.40;100.00
69153;BME280;56261;51.580;4.578;2022-12-07T14:50:24;101739.31;;;5.47;100.00
69153;BME280;56261;51.580;4.578;2022-12-07T14:52:55;101737.22;;;5.39;100.00
69153;BME280;56261;51.580;4.578;2022-12-07T14:55:30;101732.03;;;5.38;100.00
69153;BME280;56261;51.580;4.578;2022-12-07T14:57:56;101733.31;;;5.45;100.00
69153;BME280;56261;51.580;4.578;2022-12-07T15:00:24;101729.41;;;5.38;100.00
69153;BME280;56261;51.580;4.578;2022-12-07T15:02:50;101726.09;;;5.47;100.00
69153;BME280;56261;51.580;4.578;2022-12-07T15:05:16;101728.25;;;5.53;100.00
69153;BME280;56261;51.580;4.578;2022-12-07T15:07:42;101734.13;;;5.46;100.00
69153;BME280;56261;51.580;4.578;2022-12-07T15:10:25;101731.97;;;5.51;100.00
69153;BME280;56261;51.580;4.578;2022-12-07T15:12:58;101735.44;;;5.40;100.00
69153;BME280;56261;51.580;4.578;2022-12-07T15:15:50;101731.34;;;5.36;100.00